sensor_id;sensor_type;location;lat;lon;timestamp;P1;durP1;ratioP1;P2;durP2;ratioP2
76850;SDS011;65824;43.726;20.692;2023-04-03T00:01:22;10.95;;;6.70;;
76850;SDS011;65824;43.726;20.692;2023-04-03T00:03:47;11.50;;;6.65;;
76850;SDS011;65824;43.726;20.692;2023-04-03T00:06:17;12.15;;;7.18;;
76850;SDS011;65824;43.726;20.692;2023-04-03T00:08:43;11.20;;;6.90;;
76850;SDS011;65824;43.726;20.692;2023-04-03T00:11:08;12.88;;;8.02;;
76850;SDS011;65824;43.726;20.692;2023-04-03T00:13:35;12.80;;;6.95;;
76850;SDS011;65824;43.726;20.692;2023-04-03T00:16:00;13.10;;;7.90;;
76850;SDS011;65824;43.726;20.692;2023-04-03T00:18:28;13.43;;;8.15;;
76850;SDS011;65824;43.726;20.692;2023-04-03T00:20:53;19.17;;;10.52;;
76850;SDS011;65824;43.726;20.692;2023-04-03T00:23:19;18.88;;;11.07;;
76850;SDS011;65824;43.726;20.692;2023-04-03T00:25:45;19.13;;;10.25;;
76850;SDS011;65824;43.726;20.692;2023-04-03T00:28:10;20.35;;;12.05;;
76850;SDS011;65824;43.726;20.692;2023-04-03T00:30:36;16.52;;;10.90;;
76850;SDS011;65824;43.726;20.692;2023-04-03T00:33:01;19.15;;;11.48;;
76850;SDS011;65824;43.726;20.692;2023-04-03T00:35:27;18.92;;;11.15;;
76850;SDS011;65824;43.726;20.692;2023-04-03T00:37:54;20.00;;;11.60;;
76850;SDS011;65824;43.726;20.692;2023-04-03T00:40:21;16.95;;;10.43;;
76850;SDS011;65824;43.726;20.692;2023-04-03T00:42:53;16.63;;;9.35;;
76850;SDS011;65824;43.726;20.692;2023-04-03T00:45:33;34.97;;;19.70;;
76850;SDS011;65824;43.726;20.692;2023-04-03T00:48:04;228.27;;;109.05;;
76850;SDS011;65824;43.726;20.692;2023-04-03T00:50:33;371.33;;;179.73;;
76850;SDS011;65824;43.726;20.692;2023-04-03T00:53:00;194.68;;;93.90;;
76850;SDS011;65824;43.726;20.692;2023-04-03T00:55:28;106.53;;;52.10;;
76850;SDS011;65824;43.726;20.692;2023-04-03T00:57:55;69.45;;;36.22;;
76850;SDS011;65824;43.726;20.692;2023-04-03T01:00:23;44.50;;;25.33;;
76850;SDS011;65824;43.726;20.692;2023-04-03T01:02:50;45.80;;;24.65;;
76850;SDS011;65824;43.726;20.692;2023-04-03T01:05:16;39.70;;;22.50;;
76850;SDS011;65824;43.726;20.692;2023-04-03T01:07:43;58.25;;;30.20;;
76850;SDS011;65824;43.726;20.692;2023-04-03T01:10:10;40.13;;;22.58;;
76850;SDS011;65824;43.726;20.692;2023-04-03T01:12:39;43.85;;;24.05;;
76850;SDS011;65824;43.726;20.692;2023-04-03T01:15:08;29.05;;;17.02;;
76850;SDS011;65824;43.726;20.692;2023-04-03T01:17:36;24.45;;;12.93;;
76850;SDS011;65824;43.726;20.692;2023-04-03T01:22:33;22.30;;;13.18;;
76850;SDS011;65824;43.726;20.692;2023-04-03T01:25:06;25.17;;;16.30;;
76850;SDS011;65824;43.726;20.692;2023-04-03T01:27:31;30.75;;;19.75;;
76850;SDS011;65824;43.726;20.692;2023-04-03T01:29:57;33.15;;;20.08;;
76850;SDS011;65824;43.726;20.692;2023-04-03T01:32:23;30.67;;;19.33;;
76850;SDS011;65824;43.726;20.692;2023-04-03T01:34:48;27.67;;;16.83;;
76850;SDS011;65824;43.726;20.692;2023-04-03T01:37:14;29.50;;;17.15;;
76850;SDS011;65824;43.726;20.692;2023-04-03T01:39:39;26.40;;;15.50;;
76850;SDS011;65824;43.726;20.692;2023-04-03T01:42:05;20.52;;;14.23;;
76850;SDS011;65824;43.726;20.692;2023-04-03T01:44:30;22.92;;;13.57;;
76850;SDS011;65824;43.726;20.692;2023-04-03T01:46:56;18.60;;;13.55;;
76850;SDS011;65824;43.726;20.692;2023-04-03T01:49:24;20.65;;;12.82;;
76850;SDS011;65824;43.726;20.692;2023-04-03T01:51:50;20.35;;;13.02;;
76850;SDS011;65824;43.726;20.692;2023-04-03T01:54:16;17.55;;;10.43;;
76850;SDS011;65824;43.726;20.692;2023-04-03T01:56:42;16.73;;;10.32;;
76850;SDS011;65824;43.726;20.692;2023-04-03T01:59:07;19.80;;;10.00;;
76850;SDS011;65824;43.726;20.692;2023-04-03T02:01:32;17.48;;;9.70;;
76850;SDS011;65824;43.726;20.692;2023-04-03T02:03:58;18.73;;;11.50;;
76850;SDS011;65824;43.726;20.692;2023-04-03T02:06:24;16.65;;;10.57;;
76850;SDS011;65824;43.726;20.692;2023-04-03T02:08:51;21.13;;;12.27;;
76850;SDS011;65824;43.726;20.692;2023-04-03T02:11:16;24.08;;;14.43;;
76850;SDS011;65824;43.726;20.692;2023-04-03T02:13:42;24.33;;;15.35;;
76850;SDS011;65824;43.726;20.692;2023-04-03T02:16:10;26.52;;;13.10;;
76850;SDS011;65824;43.726;20.692;2023-04-03T02:18:36;20.08;;;11.80;;
76850;SDS011;65824;43.726;20.692;2023-04-03T02:21:07;25.13;;;13.90;;
76850;SDS011;65824;43.726;20.692;2023-04-03T02:23:32;22.45;;;14.75;;
76850;SDS011;65824;43.726;20.692;2023-04-03T02:26:11;26.00;;;14.50;;
76850;SDS011;65824;43.726;20.692;2023-04-03T02:28:38;25.10;;;15.73;;
76850;SDS011;65824;43.726;20.692;2023-04-03T02:31:04;36.70;;;21.27;;
76850;SDS011;65824;43.726;20.692;2023-04-03T02:33:34;33.53;;;19.63;;
76850;SDS011;65824;43.726;20.692;2023-04-03T02:36:02;57.95;;;27.60;;
76850;SDS011;65824;43.726;20.692;2023-04-03T02:38:30;47.17;;;21.65;;
76850;SDS011;65824;43.726;20.692;2023-04-03T02:41:00;31.42;;;15.93;;
76850;SDS011;65824;43.726;20.692;2023-04-03T02:43:30;39.92;;;17.75;;
76850;SDS011;65824;43.726;20.692;2023-04-03T02:45:55;28.33;;;12.55;;
76850;SDS011;65824;43.726;20.692;2023-04-03T02:48:21;22.95;;;11.15;;
76850;SDS011;65824;43.726;20.692;2023-04-03T02:50:46;16.65;;;8.75;;
76850;SDS011;65824;43.726;20.692;2023-04-03T02:53:12;15.90;;;8.50;;
76850;SDS011;65824;43.726;20.692;2023-04-03T02:55:37;14.43;;;7.60;;
76850;SDS011;65824;43.726;20.692;2023-04-03T02:58:04;11.70;;;7.20;;
76850;SDS011;65824;43.726;20.692;2023-04-03T03:00:30;11.85;;;7.30;;
76850;SDS011;65824;43.726;20.692;2023-04-03T03:02:56;14.88;;;7.70;;
76850;SDS011;65824;43.726;20.692;2023-04-03T03:05:22;12.50;;;7.22;;
76850;SDS011;65824;43.726;20.692;2023-04-03T03:07:47;11.30;;;7.28;;
76850;SDS011;65824;43.726;20.692;2023-04-03T03:10:13;13.95;;;8.30;;
76850;SDS011;65824;43.726;20.692;2023-04-03T03:12:41;12.48;;;7.75;;
76850;SDS011;65824;43.726;20.692;2023-04-03T03:15:07;11.25;;;6.78;;
76850;SDS011;65824;43.726;20.692;2023-04-03T03:17:33;13.43;;;7.45;;
76850;SDS011;65824;43.726;20.692;2023-04-03T03:19:59;11.27;;;6.85;;
76850;SDS011;65824;43.726;20.692;2023-04-03T03:22:25;12.02;;;7.10;;
76850;SDS011;65824;43.726;20.692;2023-04-03T03:24:51;12.40;;;7.05;;
76850;SDS011;65824;43.726;20.692;2023-04-03T03:27:16;11.93;;;7.32;;
76850;SDS011;65824;43.726;20.692;2023-04-03T03:29:42;14.00;;;7.68;;
76850;SDS011;65824;43.726;20.692;2023-04-03T03:32:08;12.93;;;8.35;;
76850;SDS011;65824;43.726;20.692;2023-04-03T03:34:35;15.02;;;8.80;;
76850;SDS011;65824;43.726;20.692;2023-04-03T03:37:00;14.40;;;8.60;;
76850;SDS011;65824;43.726;20.692;2023-04-03T03:39:29;15.27;;;9.15;;
76850;SDS011;65824;43.726;20.692;2023-04-03T03:41:54;17.95;;;9.73;;
76850;SDS011;65824;43.726;20.692;2023-04-03T03:44:20;18.63;;;10.75;;
76850;SDS011;65824;43.726;20.692;2023-04-03T03:46:46;17.48;;;10.55;;
76850;SDS011;65824;43.726;20.692;2023-04-03T03:49:11;18.13;;;10.45;;
76850;SDS011;65824;43.726;20.692;2023-04-03T03:51:37;19.83;;;10.13;;
76850;SDS011;65824;43.726;20.692;2023-04-03T03:54:03;18.98;;;10.82;;
76850;SDS011;65824;43.726;20.692;2023-04-03T03:56:29;18.60;;;10.88;;
76850;SDS011;65824;43.726;20.692;2023-04-03T03:58:55;18.88;;;11.23;;
76850;SDS011;65824;43.726;20.692;2023-04-03T04:01:22;18.63;;;10.43;;
76850;SDS011;65824;43.726;20.692;2023-04-03T04:03:53;19.73;;;11.38;;
76850;SDS011;65824;43.726;20.692;2023-04-03T04:06:20;20.52;;;12.00;;
76850;SDS011;65824;43.726;20.692;2023-04-03T04:08:47;21.77;;;12.63;;
76850;SDS011;65824;43.726;20.692;2023-04-03T04:11:15;21.10;;;13.35;;
76850;SDS011;65824;43.726;20.692;2023-04-03T04:13:41;24.08;;;13.88;;
76850;SDS011;65824;43.726;20.692;2023-04-03T04:16:07;25.05;;;15.77;;
76850;SDS011;65824;43.726;20.692;2023-04-03T04:18:32;25.73;;;15.82;;
76850;SDS011;65824;43.726;20.692;2023-04-03T04:20:59;27.08;;;16.20;;
76850;SDS011;65824;43.726;20.692;2023-04-03T04:23:25;28.10;;;15.38;;
76850;SDS011;65824;43.726;20.692;2023-04-03T04:25:50;25.50;;;14.70;;
76850;SDS011;65824;43.726;20.692;2023-04-03T04:28:16;27.52;;;14.32;;
76850;SDS011;65824;43.726;20.692;2023-04-03T04:30:42;21.38;;;12.88;;
76850;SDS011;65824;43.726;20.692;2023-04-03T04:33:07;18.58;;;11.90;;
76850;SDS011;65824;43.726;20.692;2023-04-03T04:35:33;19.35;;;12.48;;
76850;SDS011;65824;43.726;20.692;2023-04-03T04:37:59;19.98;;;11.98;;
76850;SDS011;65824;43.726;20.692;2023-04-03T04:40:25;17.20;;;10.48;;
76850;SDS011;65824;43.726;20.692;2023-04-03T04:42:50;16.75;;;9.80;;
76850;SDS011;65824;43.726;20.692;2023-04-03T04:45:17;15.93;;;9.35;;
76850;SDS011;65824;43.726;20.692;2023-04-03T04:47:42;15.93;;;7.65;;
76850;SDS011;65824;43.726;20.692;2023-04-03T04:50:07;15.43;;;8.77;;
76850;SDS011;65824;43.726;20.692;2023-04-03T04:52:33;14.02;;;8.43;;
76850;SDS011;65824;43.726;20.692;2023-04-03T04:54:59;16.08;;;9.35;;
76850;SDS011;65824;43.726;20.692;2023-04-03T04:57:25;20.20;;;10.23;;
76850;SDS011;65824;43.726;20.692;2023-04-03T04:59:50;18.33;;;10.68;;
76850;SDS011;65824;43.726;20.692;2023-04-03T05:02:15;19.83;;;10.60;;
76850;SDS011;65824;43.726;20.692;2023-04-03T05:04:41;19.52;;;10.30;;
76850;SDS011;65824;43.726;20.692;2023-04-03T05:07:06;19.80;;;10.93;;
76850;SDS011;65824;43.726;20.692;2023-04-03T05:09:32;19.10;;;10.02;;
76850;SDS011;65824;43.726;20.692;2023-04-03T05:11:58;23.35;;;10.93;;
76850;SDS011;65824;43.726;20.692;2023-04-03T05:14:24;15.48;;;8.85;;
76850;SDS011;65824;43.726;20.692;2023-04-03T05:16:50;14.98;;;8.30;;
76850;SDS011;65824;43.726;20.692;2023-04-03T05:19:19;16.38;;;8.70;;
76850;SDS011;65824;43.726;20.692;2023-04-03T05:21:47;13.43;;;6.97;;
76850;SDS011;65824;43.726;20.692;2023-04-03T05:24:13;15.20;;;7.63;;
76850;SDS011;65824;43.726;20.692;2023-04-03T05:26:39;14.88;;;8.48;;
76850;SDS011;65824;43.726;20.692;2023-04-03T05:29:05;16.05;;;7.93;;
76850;SDS011;65824;43.726;20.692;2023-04-03T05:31:31;15.18;;;8.07;;
76850;SDS011;65824;43.726;20.692;2023-04-03T05:36:27;17.48;;;9.98;;
76850;SDS011;65824;43.726;20.692;2023-04-03T05:38:52;11.75;;;6.85;;
76850;SDS011;65824;43.726;20.692;2023-04-03T05:41:18;12.85;;;7.07;;
76850;SDS011;65824;43.726;20.692;2023-04-03T05:43:45;13.18;;;7.13;;
76850;SDS011;65824;43.726;20.692;2023-04-03T05:46:12;13.68;;;7.90;;
76850;SDS011;65824;43.726;20.692;2023-04-03T05:48:38;14.52;;;7.82;;
76850;SDS011;65824;43.726;20.692;2023-04-03T05:51:07;15.27;;;7.93;;
76850;SDS011;65824;43.726;20.692;2023-04-03T05:53:39;13.50;;;8.07;;
76850;SDS011;65824;43.726;20.692;2023-04-03T05:56:05;13.93;;;7.75;;
76850;SDS011;65824;43.726;20.692;2023-04-03T05:58:31;14.95;;;8.05;;
76850;SDS011;65824;43.726;20.692;2023-04-03T06:00:56;14.32;;;7.50;;
76850;SDS011;65824;43.726;20.692;2023-04-03T06:03:22;11.10;;;6.78;;
76850;SDS011;65824;43.726;20.692;2023-04-03T06:05:48;12.52;;;6.57;;
76850;SDS011;65824;43.726;20.692;2023-04-03T06:08:13;12.10;;;7.32;;
76850;SDS011;65824;43.726;20.692;2023-04-03T06:10:40;14.30;;;7.75;;
76850;SDS011;65824;43.726;20.692;2023-04-03T06:13:05;14.23;;;7.55;;
76850;SDS011;65824;43.726;20.692;2023-04-03T06:15:33;12.52;;;7.18;;
76850;SDS011;65824;43.726;20.692;2023-04-03T06:18:02;13.20;;;7.45;;
76850;SDS011;65824;43.726;20.692;2023-04-03T06:20:28;11.38;;;6.60;;
76850;SDS011;65824;43.726;20.692;2023-04-03T06:22:54;14.77;;;7.07;;
76850;SDS011;65824;43.726;20.692;2023-04-03T06:25:19;14.77;;;8.60;;
76850;SDS011;65824;43.726;20.692;2023-04-03T06:27:46;12.10;;;7.13;;
76850;SDS011;65824;43.726;20.692;2023-04-03T06:30:11;11.75;;;6.35;;
76850;SDS011;65824;43.726;20.692;2023-04-03T06:32:37;12.13;;;6.68;;
76850;SDS011;65824;43.726;20.692;2023-04-03T06:35:04;11.60;;;6.40;;
76850;SDS011;65824;43.726;20.692;2023-04-03T06:37:32;10.00;;;6.05;;
76850;SDS011;65824;43.726;20.692;2023-04-03T06:39:58;8.85;;;5.13;;
76850;SDS011;65824;43.726;20.692;2023-04-03T06:42:25;8.23;;;5.07;;
76850;SDS011;65824;43.726;20.692;2023-04-03T06:44:51;8.82;;;5.18;;
76850;SDS011;65824;43.726;20.692;2023-04-03T06:47:16;9.25;;;4.88;;
76850;SDS011;65824;43.726;20.692;2023-04-03T06:49:44;9.65;;;5.82;;
76850;SDS011;65824;43.726;20.692;2023-04-03T06:52:09;9.02;;;5.28;;
76850;SDS011;65824;43.726;20.692;2023-04-03T06:54:37;9.50;;;5.30;;
76850;SDS011;65824;43.726;20.692;2023-04-03T06:57:05;8.85;;;5.20;;
76850;SDS011;65824;43.726;20.692;2023-04-03T06:59:30;10.65;;;6.00;;
76850;SDS011;65824;43.726;20.692;2023-04-03T07:01:56;11.80;;;6.22;;
76850;SDS011;65824;43.726;20.692;2023-04-03T07:04:23;10.60;;;5.95;;
76850;SDS011;65824;43.726;20.692;2023-04-03T07:06:49;10.27;;;5.43;;
76850;SDS011;65824;43.726;20.692;2023-04-03T07:09:14;8.57;;;5.28;;
76850;SDS011;65824;43.726;20.692;2023-04-03T07:11:43;8.93;;;5.60;;
76850;SDS011;65824;43.726;20.692;2023-04-03T07:14:08;9.85;;;5.50;;
76850;SDS011;65824;43.726;20.692;2023-04-03T07:16:34;10.80;;;6.45;;
76850;SDS011;65824;43.726;20.692;2023-04-03T07:19:01;11.35;;;6.80;;
76850;SDS011;65824;43.726;20.692;2023-04-03T07:21:27;10.23;;;6.03;;
76850;SDS011;65824;43.726;20.692;2023-04-03T07:23:53;8.85;;;5.53;;
76850;SDS011;65824;43.726;20.692;2023-04-03T07:26:19;8.55;;;5.13;;
76850;SDS011;65824;43.726;20.692;2023-04-03T07:28:45;10.38;;;6.18;;
76850;SDS011;65824;43.726;20.692;2023-04-03T07:31:17;11.07;;;6.60;;
76850;SDS011;65824;43.726;20.692;2023-04-03T07:33:43;9.75;;;6.20;;
76850;SDS011;65824;43.726;20.692;2023-04-03T07:36:11;11.95;;;5.82;;
76850;SDS011;65824;43.726;20.692;2023-04-03T07:38:53;10.02;;;5.53;;
76850;SDS011;65824;43.726;20.692;2023-04-03T07:41:22;10.13;;;5.47;;
76850;SDS011;65824;43.726;20.692;2023-04-03T07:43:48;8.82;;;5.35;;
76850;SDS011;65824;43.726;20.692;2023-04-03T07:46:15;7.22;;;4.70;;
76850;SDS011;65824;43.726;20.692;2023-04-03T07:48:46;9.30;;;5.10;;
76850;SDS011;65824;43.726;20.692;2023-04-03T07:51:12;10.10;;;5.10;;
76850;SDS011;65824;43.726;20.692;2023-04-03T07:53:38;12.88;;;5.80;;
76850;SDS011;65824;43.726;20.692;2023-04-03T07:56:04;9.27;;;5.05;;
76850;SDS011;65824;43.726;20.692;2023-04-03T07:58:30;9.98;;;5.50;;
76850;SDS011;65824;43.726;20.692;2023-04-03T08:00:56;9.75;;;5.20;;
76850;SDS011;65824;43.726;20.692;2023-04-03T08:03:22;8.57;;;5.57;;
76850;SDS011;65824;43.726;20.692;2023-04-03T08:05:48;9.50;;;5.20;;
76850;SDS011;65824;43.726;20.692;2023-04-03T08:08:16;11.07;;;5.03;;
76850;SDS011;65824;43.726;20.692;2023-04-03T08:10:43;11.00;;;6.68;;
76850;SDS011;65824;43.726;20.692;2023-04-03T08:13:08;9.40;;;5.40;;
76850;SDS011;65824;43.726;20.692;2023-04-03T08:15:35;10.60;;;5.35;;
76850;SDS011;65824;43.726;20.692;2023-04-03T08:18:01;9.40;;;5.28;;
76850;SDS011;65824;43.726;20.692;2023-04-03T08:20:27;9.68;;;4.80;;
76850;SDS011;65824;43.726;20.692;2023-04-03T08:22:53;10.20;;;5.43;;
76850;SDS011;65824;43.726;20.692;2023-04-03T08:25:20;9.43;;;4.85;;
76850;SDS011;65824;43.726;20.692;2023-04-03T08:27:48;9.32;;;4.70;;
76850;SDS011;65824;43.726;20.692;2023-04-03T08:30:14;10.15;;;4.85;;
76850;SDS011;65824;43.726;20.692;2023-04-03T08:32:39;10.07;;;5.25;;
76850;SDS011;65824;43.726;20.692;2023-04-03T08:35:07;8.80;;;5.10;;
76850;SDS011;65824;43.726;20.692;2023-04-03T08:37:34;11.02;;;4.72;;
76850;SDS011;65824;43.726;20.692;2023-04-03T08:40:01;11.13;;;5.60;;
76850;SDS011;65824;43.726;20.692;2023-04-03T08:45:36;8.15;;;4.38;;
76850;SDS011;65824;43.726;20.692;2023-04-03T08:48:20;10.63;;;4.68;;
76850;SDS011;65824;43.726;20.692;2023-04-03T08:50:52;10.07;;;4.40;;
76850;SDS011;65824;43.726;20.692;2023-04-03T08:53:25;10.43;;;4.60;;
76850;SDS011;65824;43.726;20.692;2023-04-03T08:55:53;8.55;;;4.35;;
76850;SDS011;65824;43.726;20.692;2023-04-03T09:03:32;9.52;;;4.72;;
76850;SDS011;65824;43.726;20.692;2023-04-03T09:11:44;8.77;;;4.53;;
76850;SDS011;65824;43.726;20.692;2023-04-03T09:14:28;8.90;;;4.53;;
76850;SDS011;65824;43.726;20.692;2023-04-03T09:17:00;10.43;;;4.60;;
76850;SDS011;65824;43.726;20.692;2023-04-03T09:27:52;12.32;;;5.43;;
76850;SDS011;65824;43.726;20.692;2023-04-03T09:30:22;10.52;;;4.88;;
76850;SDS011;65824;43.726;20.692;2023-04-03T09:32:50;10.40;;;5.03;;
76850;SDS011;65824;43.726;20.692;2023-04-03T09:40:39;10.85;;;5.35;;
76850;SDS011;65824;43.726;20.692;2023-04-03T09:43:51;11.32;;;6.15;;
76850;SDS011;65824;43.726;20.692;2023-04-03T09:45:56;10.93;;;5.50;;
76850;SDS011;65824;43.726;20.692;2023-04-03T09:48:50;10.57;;;6.95;;
76850;SDS011;65824;43.726;20.692;2023-04-03T09:51:16;14.60;;;7.30;;
76850;SDS011;65824;43.726;20.692;2023-04-03T09:53:44;10.38;;;6.05;;
76850;SDS011;65824;43.726;20.692;2023-04-03T10:01:32;8.95;;;4.38;;
76850;SDS011;65824;43.726;20.692;2023-04-03T10:06:38;9.90;;;4.95;;
76850;SDS011;65824;43.726;20.692;2023-04-03T10:09:20;14.52;;;7.10;;
76850;SDS011;65824;43.726;20.692;2023-04-03T10:12:05;10.52;;;6.30;;
76850;SDS011;65824;43.726;20.692;2023-04-03T10:14:40;11.05;;;6.32;;
76850;SDS011;65824;43.726;20.692;2023-04-03T10:19:56;8.70;;;5.03;;
76850;SDS011;65824;43.726;20.692;2023-04-03T10:25:12;9.95;;;5.35;;
76850;SDS011;65824;43.726;20.692;2023-04-03T10:30:28;14.02;;;5.97;;
76850;SDS011;65824;43.726;20.692;2023-04-03T10:33:12;13.27;;;6.70;;
76850;SDS011;65824;43.726;20.692;2023-04-03T10:36:07;11.93;;;5.55;;
76850;SDS011;65824;43.726;20.692;2023-04-03T10:38:53;11.80;;;5.85;;
76850;SDS011;65824;43.726;20.692;2023-04-03T10:41:28;10.88;;;6.32;;
76850;SDS011;65824;43.726;20.692;2023-04-03T10:44:10;11.15;;;5.22;;
76850;SDS011;65824;43.726;20.692;2023-04-03T10:46:38;8.70;;;4.38;;
76850;SDS011;65824;43.726;20.692;2023-04-03T10:55:09;10.75;;;4.10;;
76850;SDS011;65824;43.726;20.692;2023-04-03T10:57:47;11.27;;;4.63;;
76850;SDS011;65824;43.726;20.692;2023-04-03T11:00:19;9.85;;;5.20;;
76850;SDS011;65824;43.726;20.692;2023-04-03T11:05:39;12.60;;;4.80;;
76850;SDS011;65824;43.726;20.692;2023-04-03T11:11:24;14.90;;;5.72;;
76850;SDS011;65824;43.726;20.692;2023-04-03T11:13:56;13.23;;;5.90;;
76850;SDS011;65824;43.726;20.692;2023-04-03T11:16:30;11.73;;;5.70;;
76850;SDS011;65824;43.726;20.692;2023-04-03T11:21:35;12.55;;;6.40;;
76850;SDS011;65824;43.726;20.692;2023-04-03T11:24:09;13.05;;;6.55;;
76850;SDS011;65824;43.726;20.692;2023-04-03T11:26:46;14.90;;;7.20;;
76850;SDS011;65824;43.726;20.692;2023-04-03T11:29:13;14.50;;;7.35;;
76850;SDS011;65824;43.726;20.692;2023-04-03T11:37:10;15.68;;;8.10;;
76850;SDS011;65824;43.726;20.692;2023-04-03T11:39:39;14.07;;;7.45;;
76850;SDS011;65824;43.726;20.692;2023-04-03T11:42:16;17.30;;;7.38;;
76850;SDS011;65824;43.726;20.692;2023-04-03T12:08:26;14.85;;;7.45;;
76850;SDS011;65824;43.726;20.692;2023-04-03T12:13:34;15.70;;;6.88;;
76850;SDS011;65824;43.726;20.692;2023-04-03T12:16:00;14.38;;;6.95;;
76850;SDS011;65824;43.726;20.692;2023-04-03T12:21:20;13.32;;;6.55;;
76850;SDS011;65824;43.726;20.692;2023-04-03T12:24:23;12.68;;;6.60;;
76850;SDS011;65824;43.726;20.692;2023-04-03T12:48:50;15.10;;;8.80;;
76850;SDS011;65824;43.726;20.692;2023-04-03T12:54:04;19.77;;;9.18;;
76850;SDS011;65824;43.726;20.692;2023-04-03T12:56:38;15.52;;;9.15;;
76850;SDS011;65824;43.726;20.692;2023-04-03T13:01:58;16.17;;;9.05;;
76850;SDS011;65824;43.726;20.692;2023-04-03T13:04:24;14.38;;;8.38;;
76850;SDS011;65824;43.726;20.692;2023-04-03T13:06:54;15.30;;;8.23;;
76850;SDS011;65824;43.726;20.692;2023-04-03T13:11:57;18.13;;;9.88;;
76850;SDS011;65824;43.726;20.692;2023-04-03T13:14:35;15.23;;;8.48;;
76850;SDS011;65824;43.726;20.692;2023-04-03T13:17:09;19.08;;;9.98;;
76850;SDS011;65824;43.726;20.692;2023-04-03T13:19:38;20.25;;;10.73;;
76850;SDS011;65824;43.726;20.692;2023-04-03T13:22:05;20.83;;;11.45;;
76850;SDS011;65824;43.726;20.692;2023-04-03T13:24:35;20.33;;;10.80;;
76850;SDS011;65824;43.726;20.692;2023-04-03T13:27:04;20.45;;;11.38;;
76850;SDS011;65824;43.726;20.692;2023-04-03T13:29:32;20.83;;;10.63;;
76850;SDS011;65824;43.726;20.692;2023-04-03T13:32:02;21.92;;;11.65;;
76850;SDS011;65824;43.726;20.692;2023-04-03T13:34:29;23.83;;;11.95;;
76850;SDS011;65824;43.726;20.692;2023-04-03T13:37:02;23.92;;;12.98;;
76850;SDS011;65824;43.726;20.692;2023-04-03T13:39:31;25.73;;;13.23;;
76850;SDS011;65824;43.726;20.692;2023-04-03T13:41:59;26.27;;;14.18;;
76850;SDS011;65824;43.726;20.692;2023-04-03T13:44:32;25.25;;;14.25;;
76850;SDS011;65824;43.726;20.692;2023-04-03T13:54:47;26.58;;;14.27;;
76850;SDS011;65824;43.726;20.692;2023-04-03T13:57:18;24.27;;;13.23;;
76850;SDS011;65824;43.726;20.692;2023-04-03T13:59:44;25.05;;;13.60;;
76850;SDS011;65824;43.726;20.692;2023-04-03T14:02:18;23.75;;;13.48;;
76850;SDS011;65824;43.726;20.692;2023-04-03T14:04:56;25.98;;;13.93;;
76850;SDS011;65824;43.726;20.692;2023-04-03T14:07:26;26.58;;;14.77;;
76850;SDS011;65824;43.726;20.692;2023-04-03T14:09:53;24.23;;;13.00;;
76850;SDS011;65824;43.726;20.692;2023-04-03T14:12:30;25.77;;;14.15;;
76850;SDS011;65824;43.726;20.692;2023-04-03T14:14:59;29.33;;;16.40;;
76850;SDS011;65824;43.726;20.692;2023-04-03T14:17:26;34.35;;;18.80;;
76850;SDS011;65824;43.726;20.692;2023-04-03T14:19:52;29.73;;;16.45;;
76850;SDS011;65824;43.726;20.692;2023-04-03T14:22:21;29.85;;;16.27;;
76850;SDS011;65824;43.726;20.692;2023-04-03T14:24:48;29.38;;;15.90;;
76850;SDS011;65824;43.726;20.692;2023-04-03T14:27:22;27.25;;;14.68;;
76850;SDS011;65824;43.726;20.692;2023-04-03T14:29:48;27.13;;;14.63;;
76850;SDS011;65824;43.726;20.692;2023-04-03T14:32:16;28.15;;;14.77;;
76850;SDS011;65824;43.726;20.692;2023-04-03T14:34:43;28.02;;;14.40;;
76850;SDS011;65824;43.726;20.692;2023-04-03T14:37:10;27.00;;;14.52;;
76850;SDS011;65824;43.726;20.692;2023-04-03T14:39:41;31.85;;;15.15;;
76850;SDS011;65824;43.726;20.692;2023-04-03T14:42:11;26.58;;;14.73;;
76850;SDS011;65824;43.726;20.692;2023-04-03T14:44:41;28.13;;;15.15;;
76850;SDS011;65824;43.726;20.692;2023-04-03T14:47:14;25.80;;;14.88;;
76850;SDS011;65824;43.726;20.692;2023-04-03T14:49:42;22.17;;;12.25;;
76850;SDS011;65824;43.726;20.692;2023-04-03T14:52:28;24.52;;;12.35;;
76850;SDS011;65824;43.726;20.692;2023-04-03T14:54:56;22.00;;;11.80;;
76850;SDS011;65824;43.726;20.692;2023-04-03T14:57:25;24.35;;;12.57;;
76850;SDS011;65824;43.726;20.692;2023-04-03T14:59:52;23.92;;;12.70;;
76850;SDS011;65824;43.726;20.692;2023-04-03T15:02:26;25.73;;;12.30;;
76850;SDS011;65824;43.726;20.692;2023-04-03T15:04:53;27.92;;;11.77;;
76850;SDS011;65824;43.726;20.692;2023-04-03T15:07:20;19.08;;;10.70;;
76850;SDS011;65824;43.726;20.692;2023-04-03T15:09:46;22.63;;;11.82;;
76850;SDS011;65824;43.726;20.692;2023-04-03T15:12:11;25.05;;;11.55;;
76850;SDS011;65824;43.726;20.692;2023-04-03T15:14:38;29.42;;;13.20;;
76850;SDS011;65824;43.726;20.692;2023-04-03T15:17:04;23.48;;;12.23;;
76850;SDS011;65824;43.726;20.692;2023-04-03T15:19:35;22.75;;;12.38;;
76850;SDS011;65824;43.726;20.692;2023-04-03T15:22:02;23.10;;;12.57;;
76850;SDS011;65824;43.726;20.692;2023-04-03T15:24:27;23.17;;;13.30;;
76850;SDS011;65824;43.726;20.692;2023-04-03T15:26:56;24.92;;;13.73;;
76850;SDS011;65824;43.726;20.692;2023-04-03T15:29:21;25.95;;;14.95;;
76850;SDS011;65824;43.726;20.692;2023-04-03T15:31:47;28.13;;;14.32;;
76850;SDS011;65824;43.726;20.692;2023-04-03T15:34:14;29.65;;;14.40;;
76850;SDS011;65824;43.726;20.692;2023-04-03T15:36:41;30.67;;;15.85;;
76850;SDS011;65824;43.726;20.692;2023-04-03T15:39:07;31.35;;;16.33;;
76850;SDS011;65824;43.726;20.692;2023-04-03T15:41:33;26.35;;;14.90;;
76850;SDS011;65824;43.726;20.692;2023-04-03T15:43:58;28.67;;;16.13;;
76850;SDS011;65824;43.726;20.692;2023-04-03T15:46:23;31.88;;;16.30;;
76850;SDS011;65824;43.726;20.692;2023-04-03T15:48:49;34.38;;;17.92;;
76850;SDS011;65824;43.726;20.692;2023-04-03T15:51:15;35.28;;;16.83;;
76850;SDS011;65824;43.726;20.692;2023-04-03T15:53:41;32.00;;;17.67;;
76850;SDS011;65824;43.726;20.692;2023-04-03T15:56:07;30.92;;;16.85;;
76850;SDS011;65824;43.726;20.692;2023-04-03T15:58:34;28.67;;;16.10;;
76850;SDS011;65824;43.726;20.692;2023-04-03T16:01:00;24.08;;;13.77;;
76850;SDS011;65824;43.726;20.692;2023-04-03T16:03:27;25.35;;;13.73;;
76850;SDS011;65824;43.726;20.692;2023-04-03T16:05:52;24.15;;;13.52;;
76850;SDS011;65824;43.726;20.692;2023-04-03T16:08:18;24.98;;;14.27;;
76850;SDS011;65824;43.726;20.692;2023-04-03T16:10:44;26.98;;;13.95;;
76850;SDS011;65824;43.726;20.692;2023-04-03T16:13:13;24.63;;;14.07;;
76850;SDS011;65824;43.726;20.692;2023-04-03T16:15:40;25.05;;;14.75;;
76850;SDS011;65824;43.726;20.692;2023-04-03T16:18:06;24.23;;;13.60;;
76850;SDS011;65824;43.726;20.692;2023-04-03T16:20:33;23.75;;;13.70;;
76850;SDS011;65824;43.726;20.692;2023-04-03T16:22:59;26.25;;;15.02;;
76850;SDS011;65824;43.726;20.692;2023-04-03T16:25:25;25.13;;;14.18;;
76850;SDS011;65824;43.726;20.692;2023-04-03T16:27:51;23.83;;;12.73;;
76850;SDS011;65824;43.726;20.692;2023-04-03T16:30:18;25.88;;;14.10;;
76850;SDS011;65824;43.726;20.692;2023-04-03T16:32:44;25.67;;;13.70;;
76850;SDS011;65824;43.726;20.692;2023-04-03T16:35:13;29.83;;;15.55;;
76850;SDS011;65824;43.726;20.692;2023-04-03T16:37:38;28.63;;;14.50;;